createdAt,value
2018-12-06T00:01:53.765Z,19.68
2018-12-06T00:07:02.893Z,18.30
2018-12-06T00:12:12.194Z,22.19
2018-12-06T00:17:21.286Z,19.39
2018-12-06T00:22:30.731Z,20.39
2018-12-06T00:27:39.882Z,18.33
2018-12-06T00:32:49.290Z,13.62
2018-12-06T00:37:58.437Z,18.42
2018-12-06T00:43:07.703Z,18.74
2018-12-06T00:48:16.816Z,21.14
2018-12-06T00:53:26.074Z,23.52
2018-12-06T00:58:35.178Z,21.66
2018-12-06T01:03:44.510Z,29.19
2018-12-06T01:08:54.492Z,38.01
2018-12-06T01:14:03.784Z,29.23
2018-12-06T01:19:12.927Z,31.13
2018-12-06T01:24:22.262Z,30.03
2018-12-06T01:29:31.345Z,36.58
2018-12-06T01:34:40.699Z,32.93
2018-12-06T01:39:49.873Z,35.03
2018-12-06T01:44:59.594Z,39.73
2018-12-06T01:50:08.699Z,28.00
2018-12-06T01:55:18.014Z,25.08
2018-12-06T02:00:27.127Z,29.80
2018-12-06T02:05:36.525Z,32.86
2018-12-06T02:10:45.675Z,32.10
2018-12-06T02:15:55.075Z,39.43
2018-12-06T02:21:04.247Z,28.45
2018-12-06T02:26:17.544Z,30.96
2018-12-06T02:31:16.621Z,31.23
2018-12-06T02:36:26.040Z,30.47
2018-12-06T02:41:35.190Z,33.01
2018-12-06T02:46:44.692Z,32.73
2018-12-06T02:51:53.786Z,37.02
2018-12-06T02:57:03.062Z,38.77
2018-12-06T03:02:12.182Z,35.50
2018-12-06T03:07:21.607Z,31.37
2018-12-06T03:12:30.715Z,40.26
2018-12-06T03:17:40.544Z,39.52
2018-12-06T03:22:51.205Z,44.56
2018-12-06T03:27:50.634Z,31.86
2018-12-06T03:32:59.750Z,33.85
2018-12-06T03:38:09.142Z,38.75
2018-12-06T03:43:18.270Z,32.52
2018-12-06T03:48:27.629Z,32.64
2018-12-06T03:53:36.790Z,29.19
2018-12-06T03:58:46.111Z,31.40
2018-12-06T04:03:55.351Z,27.01
2018-12-06T04:09:04.735Z,24.78
2018-12-06T04:14:13.842Z,33.87
2018-12-06T04:19:23.112Z,30.14
2018-12-06T04:24:32.251Z,35.65
2018-12-06T04:29:41.577Z,28.08
2018-12-06T04:34:50.675Z,30.57
2018-12-06T04:40:02.920Z,33.55
2018-12-06T04:45:02.028Z,28.80
2018-12-06T04:50:11.325Z,30.61
2018-12-06T04:55:20.426Z,30.14
2018-12-06T05:00:29.877Z,29.25
2018-12-06T05:05:39.037Z,30.68
2018-12-06T05:10:48.286Z,32.99
2018-12-06T05:15:57.378Z,27.65
2018-12-06T05:21:06.602Z,22.35
2018-12-06T05:26:15.839Z,18.73
2018-12-06T05:31:25.183Z,23.40
2018-12-06T05:36:34.303Z,16.34
2018-12-06T05:41:43.737Z,22.45
2018-12-06T05:46:55.333Z,8.91
2018-12-06T05:51:54.728Z,10.70
2018-12-06T05:57:03.995Z,11.73
2018-12-06T06:02:14.362Z,15.79
2018-12-06T06:07:13.635Z,14.59
2018-12-06T06:12:23.787Z,10.61
2018-12-06T06:17:22.790Z,18.93
2018-12-06T06:22:32.209Z,13.88
2018-12-06T06:27:41.956Z,13.85
2018-12-06T06:32:50.287Z,9.53
2018-12-06T06:37:58.481Z,16.04
2018-12-06T06:43:06.710Z,14.41
2018-12-06T06:48:15.812Z,16.71
2018-12-06T06:53:25.193Z,13.83
2018-12-06T06:58:34.639Z,14.55
2018-12-06T07:03:43.909Z,13.52
2018-12-06T07:08:53.010Z,15.87
2018-12-06T07:14:05.928Z,15.73
2018-12-06T07:19:05.093Z,13.93
2018-12-06T07:24:14.522Z,12.67
2018-12-06T07:29:22.188Z,11.87
2018-12-06T07:34:31.496Z,12.13
2018-12-06T07:39:40.630Z,8.48
2018-12-06T07:44:50.064Z,7.66
2018-12-06T07:49:59.607Z,6.70
2018-12-06T07:55:08.954Z,5.96
2018-12-06T08:00:18.208Z,5.12
2018-12-06T08:05:27.821Z,4.97
2018-12-06T08:10:37.060Z,4.14
2018-12-06T08:15:46.309Z,3.60
2018-12-06T08:20:55.432Z,4.08
2018-12-06T08:26:06.906Z,5.59
2018-12-06T08:31:04.565Z,5.74
2018-12-06T08:36:12.344Z,5.12
2018-12-06T08:41:21.469Z,4.36
2018-12-06T08:46:29.453Z,4.36
2018-12-06T08:51:38.587Z,4.30
2018-12-06T08:56:47.998Z,3.59
2018-12-06T09:01:57.177Z,3.87
2018-12-06T09:07:06.874Z,4.29
2018-12-06T09:12:15.997Z,4.71
2018-12-06T09:17:25.473Z,5.22
2018-12-06T09:22:34.935Z,5.13
2018-12-06T09:27:46.543Z,5.37
2018-12-06T09:32:45.599Z,4.96
2018-12-06T09:37:54.867Z,3.59
2018-12-06T09:43:02.593Z,5.04
2018-12-06T09:48:10.527Z,5.49
2018-12-06T09:53:19.660Z,7.04
2018-12-06T09:58:29.589Z,7.38
2018-12-06T10:03:38.774Z,8.03
2018-12-06T10:08:46.976Z,7.96
2018-12-06T10:13:56.148Z,7.68
2018-12-06T10:19:05.542Z,6.27
2018-12-06T10:24:14.676Z,9.03
2018-12-06T10:29:23.932Z,6.77
2018-12-06T10:34:33.195Z,7.77
2018-12-06T10:39:42.985Z,5.89
2018-12-06T10:44:52.226Z,6.12
2018-12-06T10:50:01.634Z,6.25
2018-12-06T10:55:10.783Z,5.90
2018-12-06T11:00:20.452Z,5.67
2018-12-06T11:05:28.579Z,5.30
2018-12-06T11:10:38.112Z,4.58
2018-12-06T11:15:47.248Z,5.41
2018-12-06T11:20:55.073Z,4.84
2018-12-06T11:26:04.250Z,4.55
2018-12-06T11:31:13.677Z,8.22
2018-12-06T11:36:22.878Z,3.93
2018-12-06T11:41:32.410Z,3.92
2018-12-06T11:46:41.587Z,4.46
2018-12-06T11:51:50.997Z,3.75
2018-12-06T11:57:00.502Z,4.78
2018-12-06T12:02:10.222Z,4.89
2018-12-06T12:07:17.157Z,5.05
2018-12-06T12:12:26.509Z,5.06
2018-12-06T12:17:35.619Z,5.23
2018-12-06T12:22:47.454Z,5.53
2018-12-06T12:27:46.664Z,5.38
2018-12-06T12:32:56.432Z,5.80
2018-12-06T12:38:06.052Z,4.24
2018-12-06T12:43:15.425Z,4.82
2018-12-06T12:48:25.525Z,5.37
2018-12-06T12:53:24.845Z,5.36
2018-12-06T12:58:34.007Z,5.89
2018-12-06T13:03:43.672Z,5.83
2018-12-06T13:08:52.814Z,4.80
2018-12-06T13:14:03.313Z,4.45
2018-12-06T13:19:02.515Z,5.29
2018-12-06T13:24:11.953Z,6.18
2018-12-06T13:29:21.074Z,5.82
2018-12-06T13:34:30.394Z,5.70
2018-12-06T13:39:39.620Z,6.45
2018-12-06T13:44:47.636Z,5.91
2018-12-06T13:49:56.835Z,6.94
2018-12-06T13:55:06.097Z,4.97
2018-12-06T14:00:15.239Z,7.75
2018-12-06T14:05:25.715Z,6.93
2018-12-06T14:10:23.329Z,5.84
2018-12-06T14:15:32.902Z,7.69
2018-12-06T14:20:42.222Z,5.74
2018-12-06T14:25:51.502Z,4.57
2018-12-06T14:31:04.045Z,6.21
2018-12-06T14:36:03.308Z,6.46
2018-12-06T14:41:13.502Z,5.36
2018-12-06T14:46:12.785Z,4.97
2018-12-06T14:51:21.999Z,4.14
2018-12-06T14:56:31.414Z,4.68
2018-12-06T15:01:41.840Z,6.47
2018-12-06T15:06:41.546Z,4.77
2018-12-06T15:11:54.001Z,6.04
2018-12-06T15:16:53.458Z,5.51
2018-12-06T15:22:03.170Z,4.39
2018-12-06T15:27:14.735Z,3.76
2018-12-06T15:32:16.068Z,3.71
2018-12-06T15:37:15.601Z,3.74
2018-12-06T15:42:28.626Z,3.60
2018-12-06T15:47:28.493Z,4.54
2018-12-06T15:52:38.131Z,5.14
2018-12-06T15:57:49.063Z,4.48
2018-12-06T16:02:48.538Z,4.94
2018-12-06T16:08:00.258Z,3.60
2018-12-06T16:13:02.562Z,6.62
2018-12-06T16:18:01.771Z,8.33
2018-12-06T16:23:10.955Z,7.56
2018-12-06T16:28:18.801Z,8.84
2018-12-06T16:33:27.943Z,10.61
2018-12-06T16:38:37.387Z,6.48
2018-12-06T16:43:46.649Z,6.39
2018-12-06T16:48:55.883Z,5.27
2018-12-06T16:54:05.196Z,6.04
2018-12-06T16:59:14.793Z,5.90
2018-12-06T17:04:24.078Z,7.52
2018-12-06T17:09:33.656Z,8.07
2018-12-06T17:14:49.765Z,8.11
2018-12-06T17:19:49.101Z,8.06
2018-12-06T17:24:58.258Z,7.40
2018-12-06T17:30:07.597Z,5.76
2018-12-06T17:35:16.965Z,6.21
2018-12-06T17:40:26.829Z,4.58
2018-12-06T17:45:36.310Z,5.45
2018-12-06T17:50:45.649Z,6.73
2018-12-06T17:55:55.331Z,5.15
2018-12-06T18:01:04.728Z,6.77
2018-12-06T18:06:13.853Z,6.38
2018-12-06T18:11:23.495Z,5.80
2018-12-06T18:16:32.732Z,5.85
2018-12-06T18:21:42.103Z,6.45
2018-12-06T18:26:51.313Z,5.16
2018-12-06T18:32:00.715Z,4.71
2018-12-06T18:37:09.916Z,3.87
2018-12-06T18:42:19.213Z,3.67
2018-12-06T18:47:28.304Z,3.64
2018-12-06T18:52:38.099Z,3.06
2018-12-06T18:57:47.253Z,3.99
2018-12-06T19:02:56.833Z,4.25
2018-12-06T19:08:06.002Z,4.18
2018-12-06T19:13:15.745Z,4.47
2018-12-06T19:18:24.901Z,5.23
2018-12-06T19:23:34.478Z,4.62
2018-12-06T19:28:43.579Z,4.48
2018-12-06T19:33:53.318Z,4.65
2018-12-06T19:39:02.467Z,5.17
2018-12-06T19:44:12.140Z,7.11
2018-12-06T19:49:21.256Z,6.57
2018-12-06T19:54:30.641Z,7.72
2018-12-06T19:59:39.784Z,8.14
2018-12-06T20:04:49.438Z,7.25
2018-12-06T20:09:58.561Z,8.20
2018-12-06T20:15:08.219Z,8.24
2018-12-06T20:20:23.501Z,7.75
2018-12-06T20:25:26.402Z,7.32
2018-12-06T20:30:35.798Z,8.53
2018-12-06T20:35:45.283Z,6.78
2018-12-06T20:40:54.481Z,7.54
2018-12-06T20:46:04.034Z,8.04
2018-12-06T20:51:13.172Z,7.49
2018-12-06T20:56:22.534Z,7.87
2018-12-06T21:01:31.907Z,9.18
2018-12-06T21:06:41.551Z,9.66
2018-12-06T21:11:50.808Z,9.53
2018-12-06T21:17:00.288Z,8.35
2018-12-06T21:22:09.488Z,9.19
2018-12-06T21:27:18.885Z,9.46
2018-12-06T21:32:28.169Z,9.26
2018-12-06T21:37:37.493Z,11.06
2018-12-06T21:42:46.668Z,9.53
2018-12-06T21:47:56.003Z,8.91
2018-12-06T21:53:05.134Z,9.19
2018-12-06T21:58:14.512Z,5.67
2018-12-06T22:03:23.593Z,7.10
2018-12-06T22:08:32.929Z,6.93
2018-12-06T22:13:42.074Z,7.92
2018-12-06T22:18:51.450Z,6.75
2018-12-06T22:24:00.625Z,7.99
2018-12-06T22:29:09.940Z,8.40
2018-12-06T22:34:19.034Z,8.58
2018-12-06T22:39:28.333Z,7.79
2018-12-06T22:44:37.436Z,8.06
2018-12-06T22:49:46.669Z,8.71
2018-12-06T22:54:55.759Z,7.28
2018-12-06T23:00:05.105Z,7.11
2018-12-06T23:05:14.174Z,6.92
2018-12-06T23:10:23.568Z,6.02
2018-12-06T23:15:32.701Z,7.59
2018-12-06T23:20:42.045Z,7.35
2018-12-06T23:25:51.153Z,6.38
2018-12-06T23:31:00.401Z,7.98
2018-12-06T23:36:09.513Z,6.84
2018-12-06T23:41:18.800Z,6.92
2018-12-06T23:46:27.898Z,7.67
2018-12-06T23:51:37.261Z,7.26
2018-12-06T23:56:46.483Z,6.74
